Latest Weather Observations for Horsley Park

IDN60801

Issued at 10:35 pm EST Wednesday 23 April 2014 (issued every 30 minutes, with the page automatically refreshed every 10 minutes)

About weather observations | Map of weather stations | Latest weather observations for NSW | Other Formats
Station Details ID: 067119 Name: HORSLEY PARK EQUESTRIAN CENTRE AWS Lat: -33.85 Lon: 150.86 Height: 100.0 m
Data from the previous 72 hours. | See also: Recent months at Horsley Park
Date/Time
EST
Temp
°C
App
Temp
°C
Dew
Point
Rel
Hum
%
Delta-T
°C
Wind Press
QNH
hPa
Press
MSL
hPa
Rain
since 9 am
mm
Dir
 
Spd
km/h
Gust
km/h
Spd
kts
Gust
kts
23/10:30pm 14.8 14.6 10.6 76 2.2 N 2 6 1 3 - - 0.0
23/10:00pm 15.3 14.9 11.1 76 2.3 N 4 6 2 3 - - 0.0
23/09:30pm 14.5 14.6 10.3 76 2.2 CALM 0 0 0 0 - - 0.0
23/09:00pm 15.4 15.6 10.6 73 2.5 CALM 0 0 0 0 - - 0.0
23/08:30pm 16.5 16.7 10.6 68 3.2 CALM 0 0 0 0 - - 0.0
23/08:00pm 16.9 16.5 11.0 68 3.2 ESE 4 4 2 2 - - 0.0
23/07:30pm 16.2 16.3 10.3 68 3.1 CALM 0 0 0 0 - - 0.0
23/07:00pm 18.1 18.3 10.7 62 4.0 CALM 0 0 0 0 - - 0.0
23/06:30pm 17.9 16.8 9.8 59 4.3 E 6 7 3 4 - - 0.0
23/06:00pm 17.5 17.4 9.4 59 4.3 ESE 0 0 0 0 - - 0.0
23/05:30pm 19.7 19.6 9.6 52 5.4 CALM 0 0 0 0 - - 0.0
23/05:00pm 22.2 20.8 9.0 43 7.1 N 6 7 3 4 - - 0.0
23/04:30pm 23.5 22.3 9.5 41 7.6 NNE 6 7 3 4 - - 0.0
23/04:00pm 24.0 22.7 9.9 41 7.8 NE 7 11 4 6 - - 0.0
23/03:30pm 24.4 23.7 11.4 44 7.4 NNE 6 11 3 6 - - 0.0
23/03:00pm 24.8 24.5 11.4 43 7.6 NE 4 9 2 5 - - 0.0
23/02:30pm 24.8 24.4 11.0 42 7.8 NNE 4 7 2 4 - - 0.0
23/02:00pm 24.6 24.5 10.8 42 7.7 NNW 2 6 1 3 - - 0.0
23/01:30pm 23.6 23.2 11.0 45 7.0 N 4 7 2 4 - - 0.0
23/01:00pm 23.6 23.9 11.0 45 7.0 CALM 0 0 0 0 - - 0.0
23/12:30pm 22.6 22.8 12.0 51 6.0 ENE 2 4 1 2 - - 0.0
23/12:00pm 22.1 22.4 12.1 53 5.7 NW 2 6 1 3 - - 0.0
23/11:30am 21.1 21.3 12.0 56 5.1 W 2 7 1 4 - - 0.0
23/11:00am 20.9 19.9 10.4 51 5.7 WNW 6 9 3 5 - - 0.0
23/10:30am 19.9 19.1 10.9 56 4.9 NNW 6 9 3 5 - - 0.0
23/10:00am 18.2 16.9 9.8 58 4.5 WNW 7 9 4 5 - - 0.0
23/09:30am 17.3 16.0 9.2 59 4.2 WNW 6 9 3 5 - - 0.0
23/09:00am 15.9 15.7 9.1 64 3.5 CALM 0 6 0 3 - - 0.0
23/08:30am 15.1 14.4 9.9 71 2.7 WNW 4 7 2 4 - - 0.0
23/08:00am 14.5 13.1 8.7 68 2.9 W 6 7 3 4 - - 0.0
23/07:30am 12.1 12.5 11.3 95 0.4 CALM 0 0 0 0 - - 0.0
23/07:00am 9.8 9.6 9.2 96 0.3 CALM 0 0 0 0 - - 0.0
23/06:30am 9.0 8.6 8.2 95 0.4 CALM 0 0 0 0 - - 0.0
23/06:00am 8.4 7.8 7.5 94 0.4 CALM 0 0 0 0 - - 0.0
23/05:30am 8.6 8.1 7.7 94 0.4 CALM 0 0 0 0 - - 0.0
23/05:00am 8.7 7.4 7.8 94 0.4 N 4 6 2 3 - - 0.0
23/04:30am 9.0 7.8 7.9 93 0.5 W 4 6 2 3 - - 0.0
23/04:00am 9.3 8.9 8.2 93 0.5 CALM 0 0 0 0 - - 0.0
23/03:30am 9.6 9.2 8.4 92 0.6 CALM 0 4 0 2 - - 0.0
23/03:00am 9.8 9.4 8.2 90 0.8 CALM 0 0 0 0 - - 0.0
23/02:30am 10.2 9.7 8.0 86 1.1 CALM 0 2 0 1 - - 0.0
23/02:00am 10.3 9.5 8.1 86 1.1 WNW 2 6 1 3 - - 0.0
23/01:30am 11.0 9.8 8.2 83 1.4 N 4 6 2 3 - - 0.0
23/01:00am 13.2 12.1 8.3 72 2.4 SW 4 6 2 3 - - 0.0
23/12:30am 12.7 12.5 9.2 79 1.8 CALM 0 0 0 0 - - 0.0
23/12:00am 13.2 13.4 10.4 83 1.5 SW 0 0 0 0 - - 0.0
 
Date/Time
EST
Temp
°C
App
Temp
°C
Dew
Point
Rel
Hum
%
Delta-T
°C
Wind Press
QNH
hPa
Press
MSL
hPa
Rain
since 9 am
mm
Dir
 
Spd
km/h
Gust
km/h
Spd
kts
Gust
kts
22/11:30pm 12.4 12.4 9.8 84 1.3 CALM 0 0 0 0 - - 0.0
22/11:00pm 12.9 13.0 10.3 84 1.4 CALM 0 0 0 0 - - 0.0
22/10:30pm 13.4 13.4 9.8 79 1.9 CALM 0 2 0 1 - - 0.0
22/10:00pm 13.8 14.0 10.4 80 1.8 CALM 0 0 0 0 - - 0.0
22/09:30pm 13.9 13.9 9.9 77 2.1 CALM 0 0 0 0 - - 0.0
22/09:00pm 14.9 14.5 9.7 71 2.7 W 2 4 1 2 - - 0.0
22/08:30pm 17.0 16.2 9.7 62 3.8 WNW 4 7 2 4 - - 0.0
22/08:00pm 18.1 16.9 9.7 58 4.5 W 6 9 3 5 - - 0.0
22/07:30pm 17.3 17.0 10.0 62 3.9 NW 2 6 1 3 - - 0.0
22/07:00pm 17.6 17.1 10.7 64 3.7 NW 4 4 2 2 - - 0.0
22/06:30pm 17.6 17.5 10.9 65 3.6 NNW 2 4 1 2 - - 0.0
22/06:00pm 17.8 18.0 10.7 63 3.8 CALM 0 0 0 0 - - 0.0
22/05:30pm 18.6 19.0 11.4 63 4.0 CALM 0 4 0 2 - - 0.0
22/05:00pm 21.5 21.0 10.6 50 6.0 NNW 4 6 2 3 - - 0.0
22/04:30pm 22.1 20.9 9.6 45 6.8 N 6 9 3 5 - - 0.0
22/04:00pm 22.8 21.4 8.9 41 7.5 N 6 9 3 5 - - 0.0
22/03:30pm 23.2 22.1 9.9 43 7.3 NNE 6 7 3 4 - - 0.0
22/03:00pm 23.1 22.1 8.8 40 7.7 N 4 9 2 5 - - 0.0
22/02:30pm 23.9 23.4 9.5 40 7.9 WSW 2 7 1 4 - - 0.0
22/02:00pm 23.5 22.6 9.1 40 7.8 NNW 4 7 2 4 - - 0.0
22/01:30pm 22.4 21.4 8.9 42 7.2 NNW 4 7 2 4 - - 0.0
22/01:00pm 22.1 21.9 10.6 48 6.3 NNW 2 6 1 3 - - 0.0
22/12:30pm 21.2 20.2 10.4 50 5.9 N 6 11 3 6 - - 0.0
22/12:00pm 20.3 19.4 10.7 54 5.3 NNW 6 9 3 5 - - 0.0
22/11:30am 19.4 19.3 10.7 57 4.7 NW 2 9 1 5 - - 0.0
22/11:00am 17.8 16.7 9.9 60 4.2 NNW 6 7 3 4 - - 0.0
22/10:30am 17.5 17.2 10.1 62 3.9 WNW 2 7 1 4 - - 0.0
22/10:00am 15.9 16.0 10.0 68 3.1 CALM 0 6 0 3 - - 0.0
22/09:30am 14.3 13.5 9.7 74 2.4 W 4 7 2 4 - - 0.0
22/09:00am 13.3 12.9 9.9 80 1.8 NW 2 7 1 4 - - 0.0
22/08:30am 12.6 12.7 10.0 84 1.3 CALM 0 2 0 1 - - 0.0
22/08:00am 11.8 11.8 9.9 88 1.0 CALM 0 0 0 0 - - 0.0
22/07:30am 10.6 10.7 10.0 96 0.3 CALM 0 0 0 0 - - 0.0
22/07:00am 9.4 9.1 8.8 96 0.3 CALM 0 0 0 0 - - 0.0
22/06:30am 8.5 8.0 7.7 95 0.4 CALM 0 0 0 0 - - 0.0
22/06:00am 8.7 8.2 7.9 95 0.4 CALM 0 0 0 0 - - 0.0
22/05:30am 8.2 7.5 7.1 93 0.5 CALM 0 2 0 1 - - 0.0
22/05:00am 9.1 8.6 8.0 93 0.5 CALM 0 4 0 2 - - 0.0
22/04:30am 9.6 8.6 8.7 94 0.4 WSW 4 6 2 3 - - 0.0
22/04:00am 9.2 8.4 8.1 93 0.5 NW 2 6 1 3 - - 0.0
22/03:30am 9.0 8.0 7.3 89 0.8 NW 2 4 1 2 - - 0.0
22/03:00am 9.8 8.7 8.4 91 0.7 W 4 6 2 3 - - 0.0
22/02:30am 9.5 9.2 8.6 94 0.4 CALM 0 0 0 0 - - 0.0
22/02:00am 9.1 8.6 7.7 91 0.7 CALM 0 0 0 0 - - 0.0
22/01:30am 9.6 9.1 8.0 90 0.8 CALM 0 0 0 0 - - 0.0
22/01:00am 10.0 9.6 8.3 89 0.8 CALM 0 0 0 0 - - 0.0
22/12:30am 10.6 10.4 9.0 90 0.8 CALM 0 0 0 0 - - 0.0
22/12:00am 11.0 10.7 8.6 85 1.2 CALM 0 0 0 0 - - 0.0
 
Date/Time
EST
Temp
°C
App
Temp
°C
Dew
Point
Rel
Hum
%
Delta-T
°C
Wind Press
QNH
hPa
Press
MSL
hPa
Rain
since 9 am
mm
Dir
 
Spd
km/h
Gust
km/h
Spd
kts
Gust
kts
21/11:30pm 11.9 11.7 8.9 82 1.5 CALM 0 0 0 0 - - 0.0
21/11:00pm 12.6 12.4 8.9 78 1.9 CALM 0 2 0 1 - - 0.0
21/10:30pm 13.1 12.5 8.8 75 2.2 W 2 6 1 3 - - 0.0
21/10:00pm 13.8 13.2 8.8 72 2.5 W 2 4 1 2 - - 0.0
21/09:30pm 13.8 13.8 9.8 77 2.1 CALM 0 0 0 0 - - 0.0
21/09:00pm 13.6 13.9 11.0 84 1.4 CALM 0 0 0 0 - - 0.0
21/08:30pm 14.0 14.4 11.2 83 1.5 CALM 0 0 0 0 - - 0.0
21/08:00pm 14.4 14.6 10.6 78 2.0 CALM 0 0 0 0 - - 0.0
21/07:30pm 14.7 14.6 9.5 71 2.7 CALM 0 0 0 0 - - 0.0
21/07:00pm 15.4 15.1 8.6 64 3.5 CALM 0 0 0 0 - - 0.0
21/06:30pm 15.3 14.8 7.8 61 3.8 CALM 0 2 0 1 - - 0.0
21/06:00pm 15.8 15.6 9.2 65 3.4 CALM 0 0 0 0 - - 0.0
21/05:30pm 16.9 16.8 9.3 61 4.0 CALM 0 0 0 0 - - 0.0
21/05:00pm 19.7 18.9 8.1 47 6.0 NNW 2 6 1 3 - - 0.0
21/04:30pm 21.2 19.8 7.4 41 7.1 NW 4 6 2 3 - - 0.0
21/04:00pm 21.7 20.3 7.2 39 7.5 W 4 7 2 4 - - 0.0
21/03:30pm 21.4 19.9 6.9 39 7.4 N 4 7 2 4 - - 0.0
21/03:00pm 21.5 19.5 6.2 37 7.7 N 6 13 3 7 - - 0.0
21/02:30pm 21.9 20.0 6.6 37 7.8 NNW 6 9 3 5 - - 0.0
21/02:00pm 21.8 20.1 7.6 40 7.4 W 6 7 3 4 - - 0.0
21/01:30pm 21.8 20.8 9.0 44 6.8 NE 4 15 2 8 - - 0.0
21/01:00pm 21.3 19.7 7.9 42 7.0 NNW 6 9 3 5 - - 0.0
21/12:30pm 21.1 19.6 8.4 44 6.7 NNW 6 9 3 5 - - 0.0
21/12:00pm 21.1 20.1 8.7 45 6.6 NW 4 7 2 4 - - 0.0
21/11:30am 19.7 18.5 8.1 47 6.0 W 4 7 2 4 - - 0.0
21/11:00am 19.1 17.8 7.8 48 5.8 NW 4 9 2 5 - - 0.0
21/10:30am 17.9 15.9 7.3 50 5.4 WSW 7 13 4 7 - - 0.0
21/10:00am 16.8 14.8 6.9 52 4.9 W 7 15 4 8 - - 0.0
21/09:30am 16.2 14.0 7.9 58 4.2 W 9 17 5 9 - - 0.0
21/09:00am 14.7 11.7 6.0 56 4.2 WNW 11 17 6 9 - - 0.0
21/08:30am 14.4 11.8 6.3 58 3.9 W 9 15 5 8 - - 0.0
21/08:00am 13.2 11.5 6.1 62 3.4 WSW 4 9 2 5 - - 0.0
21/07:30am 11.7 10.7 7.4 75 2.1 W 2 7 1 4 - - 0.0
21/07:00am 9.1 7.4 5.7 79 1.6 W 4 6 2 3 - - 0.0
21/06:30am 9.4 7.8 4.6 72 2.1 WSW 2 6 1 3 - - 0.0
21/06:00am 11.0 8.7 4.7 65 2.9 WSW 6 9 3 5 - - 0.0
21/05:30am 11.3 8.8 4.7 64 3.0 WSW 7 13 4 7 - - 0.0
21/05:00am 10.9 8.7 5.2 68 2.6 WSW 6 9 3 5 - - 0.0
21/04:30am 9.9 8.4 5.1 72 2.2 WSW 2 6 1 3 - - 0.0
21/04:00am 11.8 9.5 4.8 62 3.2 SW 6 9 3 5 - - 0.0
21/03:30am 12.1 9.8 4.6 60 3.4 SW 6 9 3 5 - - 0.0
21/03:00am 12.9 9.6 4.8 58 3.7 SW 11 15 6 8 - - 0.0
21/02:30am 13.1 9.5 5.0 58 3.8 SW 13 17 7 9 - - 0.0
21/02:00am 13.2 9.3 5.4 59 3.7 SW 15 20 8 11 - - 0.0
21/01:30am 13.6 9.8 5.7 59 3.7 SSW 15 22 8 12 - - 0.0
21/01:00am 13.8 10.5 6.4 61 3.6 SSW 13 20 7 11 - - 0.0
21/12:30am 13.6 10.7 6.7 63 3.3 SW 11 17 6 9 - - 0.0
21/12:00am 14.2 11.4 7.0 62 3.5 SW 11 19 6 10 - - 0.0
 
Date/Time
EST
Temp
°C
App
Temp
°C
Dew
Point
Rel
Hum
%
Delta-T
°C
Wind Press
QNH
hPa
Press
MSL
hPa
Rain
since 9 am
mm
Dir
 
Spd
km/h
Gust
km/h
Spd
kts
Gust
kts
20/11:30pm 14.5 12.2 7.3 62 3.6 SW 9 15 5 8 - - 0.0
20/11:00pm 14.8 12.5 7.6 62 3.6 SSW 9 13 5 7 - - 0.0

Other Formats:

Comma delimited format used in spreadsheet applications
http://www.bom.gov.au/fwo/IDN60801/IDN60801.94760.axf

JavaScript Object Notation format (JSON) in row-major order
http://www.bom.gov.au/fwo/IDN60801/IDN60801.94760.json